createdAt,value
2019-04-05T00:00:12.688Z,0
2019-04-05T00:01:13.260Z,0
2019-04-05T00:02:13.822Z,0
2019-04-05T00:03:14.392Z,0
2019-04-05T00:04:14.957Z,0
2019-04-05T00:05:15.533Z,0
2019-04-05T00:06:16.102Z,0
2019-04-05T00:07:16.667Z,0
2019-04-05T00:08:17.231Z,0
2019-04-05T00:09:17.798Z,0
2019-04-05T00:10:18.361Z,0
2019-04-05T00:11:18.948Z,0
2019-04-05T00:12:19.507Z,0
2019-04-05T00:13:20.073Z,0
2019-04-05T00:14:20.640Z,0
2019-04-05T00:15:21.210Z,0
2019-04-05T00:16:21.776Z,0
2019-04-05T00:17:22.341Z,0
2019-04-05T00:18:22.907Z,0
2019-04-05T00:19:23.472Z,0
2019-04-05T00:20:24.042Z,0
2019-04-05T00:21:24.616Z,0
2019-04-05T00:22:25.182Z,0
2019-04-05T00:23:25.750Z,0
2019-04-05T00:24:26.321Z,0
2019-04-05T00:25:26.915Z,0
2019-04-05T00:26:27.450Z,0
2019-04-05T00:27:28.017Z,0
2019-04-05T00:28:28.593Z,0
2019-04-05T00:29:29.159Z,0
2019-04-05T00:30:29.724Z,0
2019-04-05T00:31:30.293Z,0
2019-04-05T00:32:30.856Z,0
2019-04-05T00:33:31.433Z,0
2019-04-05T00:34:32.002Z,0
2019-04-05T00:35:32.567Z,0
2019-04-05T00:36:33.133Z,0
2019-04-05T00:37:33.700Z,0
2019-04-05T00:38:34.268Z,0
2019-04-05T00:39:34.833Z,0
2019-04-05T00:40:35.400Z,0
2019-04-05T00:41:35.965Z,0
2019-04-05T00:42:36.532Z,0
2019-04-05T00:43:37.100Z,0
2019-04-05T00:44:37.664Z,0
2019-04-05T00:45:38.230Z,0
2019-04-05T00:46:38.796Z,0
2019-04-05T00:47:39.362Z,0
2019-04-05T00:48:39.928Z,0
2019-04-05T00:49:40.495Z,0
2019-04-05T00:50:41.061Z,0
2019-04-05T00:51:41.631Z,0
2019-04-05T00:52:42.193Z,0
2019-04-05T00:53:42.759Z,0
2019-04-05T00:54:43.325Z,0
2019-04-05T00:55:43.892Z,0
2019-04-05T00:56:44.458Z,0
2019-04-05T00:57:45.024Z,0
2019-04-05T00:58:45.601Z,0
2019-04-05T00:59:46.170Z,0
2019-04-05T01:00:46.741Z,0
2019-04-05T01:01:47.304Z,0
2019-04-05T01:02:47.880Z,0
2019-04-05T01:03:48.445Z,0
2019-04-05T01:04:49.011Z,0
2019-04-05T01:05:49.576Z,0
2019-04-05T01:06:50.143Z,0
2019-04-05T01:07:50.719Z,0
2019-04-05T01:08:51.274Z,0
2019-04-05T01:09:51.845Z,0
2019-04-05T01:10:52.419Z,0
2019-04-05T01:11:52.984Z,0
2019-04-05T01:12:53.562Z,0
2019-04-05T01:13:54.128Z,0
2019-04-05T01:14:54.700Z,0
2019-04-05T01:15:55.266Z,0
2019-04-05T01:16:55.832Z,0
2019-04-05T01:17:56.399Z,0
2019-04-05T01:18:56.965Z,0
2019-04-05T01:19:57.532Z,0
2019-04-05T01:20:58.099Z,0
2019-04-05T01:21:58.666Z,0
2019-04-05T01:22:59.232Z,0
2019-04-05T01:23:59.799Z,0
2019-04-05T01:25:00.365Z,0
2019-04-05T01:26:00.941Z,0
2019-04-05T01:27:01.510Z,0
2019-04-05T01:28:02.095Z,0
2019-04-05T01:29:02.653Z,0
2019-04-05T01:30:03.218Z,0
2019-04-05T01:31:03.790Z,0
2019-04-05T01:32:04.362Z,0
2019-04-05T01:33:04.929Z,0
2019-04-05T01:34:05.781Z,0
2019-04-05T01:35:06.352Z,0
2019-04-05T01:36:06.919Z,0
2019-04-05T01:37:07.487Z,0
2019-04-05T01:38:08.050Z,0
2019-04-05T01:39:08.627Z,0
2019-04-05T01:40:09.196Z,0
2019-04-05T01:41:09.762Z,0
2019-04-05T01:42:10.328Z,0
2019-04-05T01:43:10.894Z,0
2019-04-05T01:44:11.463Z,0
2019-04-05T01:45:12.042Z,0
2019-04-05T01:46:12.611Z,0
2019-04-05T01:47:13.186Z,0
2019-04-05T01:48:13.752Z,0
2019-04-05T01:49:14.317Z,0
2019-04-05T01:50:14.932Z,0
2019-04-05T01:51:15.458Z,0
2019-04-05T01:52:16.039Z,0
2019-04-05T01:53:16.592Z,0
2019-04-05T01:54:17.162Z,0
2019-04-05T01:55:17.729Z,0
2019-04-05T01:56:18.297Z,0
2019-04-05T01:57:18.863Z,0
2019-04-05T01:58:19.433Z,0
2019-04-05T01:59:19.999Z,0
2019-04-05T02:00:20.567Z,0
2019-04-05T02:01:21.133Z,0
2019-04-05T02:02:21.700Z,0
2019-04-05T02:03:22.280Z,0
2019-04-05T02:04:22.846Z,0
2019-04-05T02:05:23.413Z,0
2019-04-05T02:06:23.978Z,0
2019-04-05T02:07:24.547Z,0
2019-04-05T02:08:25.112Z,0
2019-04-05T02:09:25.687Z,0
2019-04-05T02:10:26.249Z,0
2019-04-05T02:11:26.816Z,0
2019-04-05T02:12:27.382Z,0
2019-04-05T02:13:27.949Z,0
2019-04-05T02:14:28.517Z,0
2019-04-05T02:15:29.101Z,0
2019-04-05T02:16:29.668Z,0
2019-04-05T02:17:30.248Z,0
2019-04-05T02:18:30.884Z,0
2019-04-05T02:19:31.393Z,0
2019-04-05T02:20:31.967Z,0
2019-04-05T02:21:32.530Z,0
2019-04-05T02:22:33.101Z,0
2019-04-05T02:23:33.681Z,0
2019-04-05T02:24:34.249Z,0
2019-04-05T02:25:34.816Z,0
2019-04-05T02:26:35.382Z,0
2019-04-05T02:27:35.950Z,0
2019-04-05T02:28:36.522Z,0
2019-04-05T02:29:37.091Z,0
2019-04-05T02:30:37.658Z,0
2019-04-05T02:31:38.223Z,0
2019-04-05T02:32:38.790Z,0
2019-04-05T02:33:39.360Z,0
2019-04-05T02:34:39.940Z,0
2019-04-05T02:35:40.512Z,0
2019-04-05T02:36:41.098Z,0
2019-04-05T02:37:41.658Z,0
2019-04-05T02:38:42.227Z,0
2019-04-05T02:39:42.794Z,0
2019-04-05T02:40:43.367Z,0
2019-04-05T02:41:43.930Z,0
2019-04-05T02:42:44.508Z,0
2019-04-05T02:43:45.075Z,0
2019-04-05T02:44:45.648Z,0
2019-04-05T02:45:46.220Z,0
2019-04-05T02:46:46.797Z,0
2019-04-05T02:47:51.502Z,0
2019-04-05T02:48:48.927Z,0
2019-04-05T02:49:49.490Z,0
2019-04-05T02:50:50.061Z,0
2019-04-05T02:51:50.628Z,0
2019-04-05T02:52:51.207Z,0
2019-04-05T02:53:51.778Z,0
2019-04-05T02:54:52.347Z,0
2019-04-05T02:55:52.920Z,0
2019-04-05T02:56:53.489Z,0
2019-04-05T02:57:54.067Z,0
2019-04-05T02:58:54.638Z,0
2019-04-05T02:59:55.205Z,0
2019-04-05T03:00:55.776Z,0
2019-04-05T03:01:56.340Z,0
2019-04-05T03:02:56.912Z,0
2019-04-05T03:03:57.486Z,0
2019-04-05T03:04:58.069Z,0
2019-04-05T03:05:58.637Z,0
2019-04-05T03:06:59.207Z,0
2019-04-05T03:07:59.781Z,0
2019-04-05T03:09:00.350Z,0
2019-04-05T03:10:00.923Z,0
2019-04-05T03:11:01.487Z,0
2019-04-05T03:12:02.056Z,0
2019-04-05T03:13:02.622Z,0
2019-04-05T03:14:03.228Z,0
2019-04-05T03:15:03.760Z,0
2019-04-05T03:16:04.325Z,0
2019-04-05T03:17:04.925Z,0
2019-04-05T03:18:05.460Z,0
2019-04-05T03:19:06.026Z,0
2019-04-05T03:20:06.600Z,0
2019-04-05T03:21:07.162Z,0
2019-04-05T03:22:07.745Z,0
2019-04-05T03:23:08.308Z,0
2019-04-05T03:24:08.874Z,0
2019-04-05T03:25:09.455Z,0
2019-04-05T03:26:10.028Z,0
2019-04-05T03:27:10.606Z,0
2019-04-05T03:28:11.171Z,0
2019-04-05T03:29:11.740Z,0
2019-04-05T03:30:12.359Z,0
2019-04-05T03:31:12.905Z,0
2019-04-05T03:32:13.488Z,0
2019-04-05T03:33:14.049Z,0
2019-04-05T03:34:14.643Z,0
2019-04-05T03:35:15.202Z,0
2019-04-05T03:36:15.765Z,0
2019-04-05T03:37:16.345Z,0
2019-04-05T03:38:16.910Z,0
2019-04-05T03:39:17.476Z,0
2019-04-05T03:40:18.042Z,0
2019-04-05T03:41:18.621Z,0
2019-04-05T03:42:19.190Z,0
2019-04-05T03:43:19.783Z,0
2019-04-05T03:44:22.940Z,0
2019-04-05T03:45:21.886Z,0
2019-04-05T03:46:22.456Z,0
2019-04-05T03:47:23.025Z,0
2019-04-05T03:48:23.606Z,0
2019-04-05T03:49:24.174Z,0
2019-04-05T03:50:24.740Z,0
2019-04-05T03:51:25.305Z,0
2019-04-05T03:52:25.873Z,0
2019-04-05T03:53:26.441Z,0
2019-04-05T03:54:27.010Z,0
2019-04-05T03:55:27.573Z,0
2019-04-05T03:56:28.140Z,0
2019-04-05T03:57:28.708Z,0
2019-04-05T03:58:29.276Z,0
2019-04-05T03:59:29.842Z,0
2019-04-05T04:00:30.423Z,0
2019-04-05T04:01:31.016Z,0
2019-04-05T04:02:31.575Z,0
2019-04-05T04:03:32.154Z,0
2019-04-05T04:04:32.729Z,0
2019-04-05T04:05:33.298Z,0
2019-04-05T04:06:33.873Z,0
2019-04-05T04:07:34.428Z,0
2019-04-05T04:08:34.999Z,0
2019-04-05T04:09:35.566Z,0
2019-04-05T04:10:36.144Z,0
2019-04-05T04:11:36.710Z,0
2019-04-05T04:12:37.276Z,0
2019-04-05T04:13:37.857Z,0
2019-04-05T04:14:38.435Z,0
2019-04-05T04:15:39.016Z,0
2019-04-05T04:16:39.587Z,0
2019-04-05T04:17:40.161Z,0
2019-04-05T04:18:40.724Z,0
2019-04-05T04:19:41.292Z,0
2019-04-05T04:20:41.880Z,0
2019-04-05T04:21:42.448Z,0
2019-04-05T04:22:43.011Z,0
2019-04-05T04:23:43.580Z,0
2019-04-05T04:24:44.149Z,0
2019-04-05T04:25:44.720Z,0
2019-04-05T04:26:45.286Z,0
2019-04-05T04:27:45.852Z,0
2019-04-05T04:28:46.418Z,0
2019-04-05T04:29:46.983Z,0
2019-04-05T04:30:47.551Z,0
2019-04-05T04:31:48.114Z,0
2019-04-05T04:32:48.685Z,0
2019-04-05T04:33:49.338Z,0
2019-04-05T04:34:49.904Z,0
2019-04-05T04:35:50.485Z,0
2019-04-05T04:36:51.051Z,0
2019-04-05T04:37:51.621Z,0
2019-04-05T04:38:52.191Z,0
2019-04-05T04:39:52.769Z,0
2019-04-05T04:40:53.331Z,0
2019-04-05T04:41:53.909Z,0
2019-04-05T04:42:54.468Z,0
2019-04-05T04:43:55.035Z,0
2019-04-05T04:44:55.603Z,0
2019-04-05T04:45:56.181Z,0
2019-04-05T04:46:56.760Z,0
2019-04-05T04:47:57.328Z,0
2019-04-05T04:48:57.900Z,0
2019-04-05T04:49:58.471Z,0
2019-04-05T04:50:59.053Z,0
2019-04-05T04:51:59.619Z,0
2019-04-05T04:53:00.189Z,0
2019-04-05T04:54:00.762Z,0
2019-04-05T04:55:01.337Z,0
2019-04-05T04:56:01.907Z,0
2019-04-05T04:57:02.477Z,4
2019-04-05T04:58:03.044Z,4
2019-04-05T04:59:03.610Z,4
2019-04-05T05:00:04.177Z,4
2019-04-05T05:01:04.744Z,0
2019-04-05T05:02:05.311Z,0
2019-04-05T05:03:05.881Z,0
2019-04-05T05:04:08.328Z,4
2019-04-05T05:05:08.009Z,4
2019-04-05T05:06:08.576Z,4
2019-04-05T05:07:09.146Z,4
2019-04-05T05:08:09.725Z,4
2019-04-05T05:09:10.292Z,4
2019-04-05T05:10:10.872Z,4
2019-04-05T05:11:14.699Z,4
2019-04-05T05:12:12.019Z,4
2019-04-05T05:13:12.587Z,4
2019-04-05T05:14:13.167Z,4
2019-04-05T05:15:13.738Z,8
2019-04-05T05:16:14.304Z,8
2019-04-05T05:17:14.873Z,4
2019-04-05T05:18:15.439Z,8
2019-04-05T05:19:16.007Z,8
2019-04-05T05:20:16.573Z,8
2019-04-05T05:21:17.146Z,8
2019-04-05T05:22:17.710Z,8
2019-04-05T05:23:18.282Z,12
2019-04-05T05:24:18.871Z,8
2019-04-05T05:25:19.418Z,12
2019-04-05T05:26:19.985Z,12
2019-04-05T05:27:20.557Z,12
2019-04-05T05:28:21.129Z,12
2019-04-05T05:29:21.693Z,12
2019-04-05T05:30:22.263Z,16
2019-04-05T05:31:22.845Z,16
2019-04-05T05:32:23.415Z,16
2019-04-05T05:33:23.997Z,20
2019-04-05T05:34:24.566Z,20
2019-04-05T05:35:25.133Z,24
2019-04-05T05:36:25.703Z,24
2019-04-05T05:37:26.271Z,24
2019-04-05T05:38:26.840Z,28
2019-04-05T05:39:27.414Z,28
2019-04-05T05:40:34.821Z,28
2019-04-05T05:41:29.551Z,32
2019-04-05T05:42:30.120Z,32
2019-04-05T05:43:30.692Z,28
2019-04-05T05:44:31.258Z,32
2019-04-05T05:45:31.827Z,32
2019-04-05T05:46:32.395Z,32
2019-04-05T05:47:32.963Z,36
2019-04-05T05:48:33.533Z,40
2019-04-05T05:49:34.105Z,40
2019-04-05T05:50:34.677Z,40
2019-04-05T05:51:35.244Z,44
2019-04-05T05:52:35.811Z,48
2019-04-05T05:53:36.379Z,48
2019-04-05T05:54:36.946Z,52
2019-04-05T05:55:37.517Z,52
2019-04-05T05:56:38.087Z,52
2019-04-05T05:57:38.656Z,56
2019-04-05T05:58:39.230Z,56
2019-04-05T05:59:39.794Z,56
2019-04-05T06:00:40.362Z,56
2019-04-05T06:01:40.929Z,56
2019-04-05T06:02:41.502Z,60
2019-04-05T06:03:42.080Z,64
2019-04-05T06:04:42.664Z,64
2019-04-05T06:05:43.229Z,64
2019-04-05T06:06:43.802Z,68
2019-04-05T06:07:44.367Z,68
2019-04-05T06:08:44.932Z,68
2019-04-05T06:09:47.732Z,68
2019-04-05T06:10:47.065Z,72
2019-04-05T06:11:47.647Z,72
2019-04-05T06:12:48.218Z,68
2019-04-05T06:13:48.785Z,72
2019-04-05T06:14:49.355Z,72
2019-04-05T06:15:49.927Z,72
2019-04-05T06:16:50.492Z,72
2019-04-05T06:18:03.879Z,68
2019-04-05T06:18:51.639Z,68
2019-04-05T06:19:52.207Z,68
2019-04-05T06:20:52.776Z,72
2019-04-05T06:21:53.346Z,68
2019-04-05T06:22:53.918Z,72
2019-04-05T06:23:54.486Z,76
2019-04-05T06:24:55.055Z,72
2019-04-05T06:25:55.622Z,76
2019-04-05T06:26:56.203Z,76
2019-04-05T06:27:59.665Z,80
2019-04-05T06:28:57.364Z,80
2019-04-05T06:29:57.933Z,84
2019-04-05T06:30:58.513Z,84
2019-04-05T06:31:59.083Z,88
2019-04-05T06:32:59.654Z,84
2019-04-05T06:34:00.223Z,88
2019-04-05T06:35:00.807Z,84
2019-04-05T06:36:01.376Z,84
2019-04-05T06:37:01.947Z,88
2019-04-05T06:38:02.517Z,88
2019-04-05T06:39:03.088Z,92
2019-04-05T06:40:03.652Z,92
2019-04-05T06:41:04.217Z,96
2019-04-05T06:42:04.789Z,100
2019-04-05T06:43:06.905Z,100
2019-04-05T06:44:06.922Z,104
2019-04-05T06:45:07.494Z,100
2019-04-05T06:46:08.062Z,100
2019-04-05T06:47:08.632Z,100
2019-04-05T06:48:18.884Z,96
2019-04-05T06:49:09.779Z,100
2019-04-05T06:50:10.348Z,96
2019-04-05T06:51:10.928Z,96
2019-04-05T06:52:11.495Z,96
2019-04-05T06:53:12.067Z,100
2019-04-05T06:54:12.637Z,104
2019-04-05T06:55:13.206Z,108
2019-04-05T06:56:13.777Z,108
2019-04-05T06:57:14.347Z,108
2019-04-05T06:58:19.632Z,112
2019-04-05T06:59:19.210Z,112
2019-04-05T07:00:18.056Z,112
2019-04-05T07:01:18.623Z,120
2019-04-05T07:02:19.193Z,132
2019-04-05T07:03:19.773Z,148
2019-04-05T07:04:20.350Z,160
2019-04-05T07:05:21.168Z,176
2019-04-05T07:06:21.693Z,188
2019-04-05T07:07:22.268Z,188
2019-04-05T07:08:22.839Z,192
2019-04-05T07:09:23.406Z,204
2019-04-05T07:10:23.977Z,212
2019-04-05T07:11:24.546Z,212
2019-04-05T07:12:25.122Z,212
2019-04-05T07:13:27.439Z,212
2019-04-05T07:14:27.255Z,208
2019-04-05T07:15:27.825Z,204
2019-04-05T07:16:28.399Z,204
2019-04-05T07:17:28.966Z,196
2019-04-05T07:18:35.438Z,196
2019-04-05T07:19:31.099Z,188
2019-04-05T07:20:31.670Z,184
2019-04-05T07:21:32.238Z,188
2019-04-05T07:22:38.940Z,188
2019-04-05T07:23:34.376Z,184
2019-04-05T07:24:34.947Z,180
2019-04-05T07:25:35.516Z,184
2019-04-05T07:26:36.109Z,192
2019-04-05T07:27:36.660Z,216
2019-04-05T07:28:37.233Z,244
2019-04-05T07:29:37.800Z,256
2019-04-05T07:30:38.371Z,264
2019-04-05T07:31:38.946Z,256
2019-04-05T07:32:39.514Z,260
2019-04-05T07:33:40.087Z,272
2019-04-05T07:34:40.654Z,276
2019-04-05T07:35:41.227Z,276
2019-04-05T07:36:41.799Z,276
2019-04-05T07:37:42.369Z,276
2019-04-05T07:38:42.942Z,272
2019-04-05T07:39:43.512Z,264
2019-04-05T07:40:44.082Z,252
2019-04-05T07:41:44.655Z,252
2019-04-05T07:42:45.290Z,268
2019-04-05T07:43:45.794Z,268
2019-04-05T07:44:46.398Z,268
2019-04-05T07:45:46.938Z,272
2019-04-05T07:46:47.513Z,276
2019-04-05T07:47:48.093Z,284
2019-04-05T07:48:48.714Z,276
2019-04-05T07:49:49.233Z,260
2019-04-05T07:50:49.805Z,260
2019-04-05T07:51:50.376Z,284
2019-04-05T07:52:50.951Z,304
2019-04-05T07:53:51.526Z,324
2019-04-05T07:54:52.107Z,336
2019-04-05T07:55:52.675Z,340
2019-04-05T07:56:53.254Z,360
2019-04-05T07:57:53.827Z,372
2019-04-05T07:58:54.399Z,376
2019-04-05T07:59:54.966Z,364
2019-04-05T08:00:55.536Z,340
2019-04-05T08:01:56.109Z,332
2019-04-05T08:02:56.693Z,336
2019-04-05T08:03:58.145Z,352
2019-04-05T08:04:58.791Z,372
2019-04-05T08:05:59.363Z,392
2019-04-05T08:06:59.932Z,388
2019-04-05T08:08:00.513Z,380
2019-04-05T08:09:02.372Z,364
2019-04-05T08:10:03.152Z,364
2019-04-05T08:11:03.228Z,352
2019-04-05T08:12:03.799Z,340
2019-04-05T08:13:04.371Z,332
2019-04-05T08:14:04.943Z,328
2019-04-05T08:15:05.513Z,328
2019-04-05T08:16:06.087Z,360
2019-04-05T08:17:06.656Z,364
2019-04-05T08:18:07.229Z,348
2019-04-05T08:19:07.800Z,332
2019-04-05T08:20:08.372Z,348
2019-04-05T08:21:08.965Z,348
2019-04-05T08:22:09.524Z,332
2019-04-05T08:23:10.098Z,312
2019-04-05T08:24:10.672Z,292
2019-04-05T08:25:11.243Z,268
2019-04-05T08:26:11.828Z,244
2019-04-05T08:27:12.410Z,224
2019-04-05T08:28:12.980Z,216
2019-04-05T08:29:13.553Z,208
2019-04-05T08:30:14.123Z,200
2019-04-05T08:31:15.132Z,196
2019-04-05T08:32:15.703Z,188
2019-04-05T08:33:16.278Z,192
2019-04-05T08:34:16.850Z,208
2019-04-05T08:35:17.419Z,224
2019-04-05T08:36:17.992Z,212
2019-04-05T08:37:18.560Z,212
2019-04-05T08:38:19.134Z,216
2019-04-05T08:39:19.709Z,200
2019-04-05T08:40:20.276Z,192
2019-04-05T08:41:20.847Z,220
2019-04-05T08:42:21.419Z,240
2019-04-05T08:43:21.990Z,252
2019-04-05T08:44:22.563Z,252
2019-04-05T08:45:23.131Z,224
2019-04-05T08:46:23.701Z,200
2019-04-05T08:47:24.272Z,188
2019-04-05T08:48:24.842Z,184
2019-04-05T08:49:25.411Z,188
2019-04-05T08:50:25.981Z,192
2019-04-05T08:51:26.549Z,204
2019-04-05T08:52:27.212Z,212
2019-04-05T08:53:27.711Z,216
2019-04-05T08:54:32.685Z,208
2019-04-05T08:55:29.843Z,204
2019-04-05T08:56:30.415Z,204
2019-04-05T08:57:30.985Z,208
2019-04-05T08:58:33.570Z,208
2019-04-05T08:59:33.121Z,212
2019-04-05T09:00:33.693Z,240
2019-04-05T09:01:34.264Z,272
2019-04-05T09:02:34.855Z,284
2019-04-05T09:03:35.430Z,288
2019-04-05T09:04:36.000Z,288
2019-04-05T09:05:36.571Z,308
2019-04-05T09:06:37.142Z,324
2019-04-05T09:07:37.713Z,344
2019-04-05T09:08:38.285Z,364
2019-04-05T09:09:38.855Z,352
2019-04-05T09:10:39.441Z,328
2019-04-05T09:11:40.014Z,308
2019-04-05T09:12:40.585Z,308
2019-04-05T09:13:41.986Z,308
2019-04-05T09:14:42.554Z,284
2019-04-05T09:15:43.126Z,256
2019-04-05T09:16:43.700Z,240
2019-04-05T09:17:44.312Z,240
2019-04-05T09:18:44.843Z,240
2019-04-05T09:19:45.423Z,244
2019-04-05T09:20:45.996Z,256
2019-04-05T09:21:46.558Z,276
2019-04-05T09:22:47.127Z,304
2019-04-05T09:23:47.697Z,312
2019-04-05T09:24:48.268Z,300
2019-04-05T09:25:48.843Z,284
2019-04-05T09:26:49.411Z,264
2019-04-05T09:27:49.982Z,252
2019-04-05T09:28:50.553Z,244
2019-04-05T09:29:51.125Z,252
2019-04-05T09:30:52.105Z,260
2019-04-05T09:31:52.689Z,260
2019-04-05T09:32:53.264Z,232
2019-04-05T09:33:53.844Z,224
2019-04-05T09:34:54.413Z,212
2019-04-05T09:35:54.982Z,208
2019-04-05T09:36:55.551Z,208
2019-04-05T09:37:56.126Z,216
2019-04-05T09:38:56.703Z,244
2019-04-05T09:39:57.276Z,280
2019-04-05T09:40:57.847Z,292
2019-04-05T09:41:58.424Z,280
2019-04-05T09:42:58.992Z,268
2019-04-05T09:43:59.575Z,256
2019-04-05T09:45:00.148Z,248
2019-04-05T09:46:00.719Z,240
2019-04-05T09:47:01.292Z,244
2019-04-05T09:48:01.876Z,256
2019-04-05T09:49:02.446Z,268
2019-04-05T09:50:03.016Z,280
2019-04-05T09:51:03.591Z,284
2019-04-05T09:52:04.161Z,268
2019-04-05T09:53:04.732Z,240
2019-04-05T09:54:05.304Z,208
2019-04-05T09:55:05.873Z,180
2019-04-05T09:56:06.473Z,164
2019-04-05T09:57:07.042Z,156
2019-04-05T09:58:09.924Z,156
2019-04-05T09:59:09.162Z,160
2019-04-05T10:00:09.736Z,172
2019-04-05T10:01:10.306Z,196
2019-04-05T10:02:10.874Z,208
2019-04-05T10:03:11.444Z,208
2019-04-05T10:04:12.019Z,212
2019-04-05T10:05:12.592Z,220
2019-04-05T10:06:13.175Z,224
2019-04-05T10:07:13.760Z,232
2019-04-05T10:08:14.330Z,240
2019-04-05T10:09:14.903Z,236
2019-04-05T10:10:15.472Z,240
2019-04-05T10:11:16.048Z,244
2019-04-05T10:12:16.621Z,244
2019-04-05T10:13:17.189Z,252
2019-04-05T10:14:17.759Z,252
2019-04-05T10:15:18.330Z,248
2019-04-05T10:16:18.904Z,248
2019-04-05T10:17:19.479Z,248
2019-04-05T10:18:20.052Z,260
2019-04-05T10:19:20.624Z,280
2019-04-05T10:20:21.202Z,292
2019-04-05T10:21:21.767Z,300
2019-04-05T10:22:22.368Z,300
2019-04-05T10:23:22.913Z,296
2019-04-05T10:24:23.487Z,304
2019-04-05T10:25:24.058Z,324
2019-04-05T10:26:24.627Z,344
2019-04-05T10:27:25.199Z,364
2019-04-05T10:28:25.774Z,368
2019-04-05T10:29:26.347Z,364
2019-04-05T10:30:26.923Z,364
2019-04-05T10:31:27.501Z,356
2019-04-05T10:32:28.075Z,352
2019-04-05T10:33:28.643Z,348
2019-04-05T10:34:29.215Z,348
2019-04-05T10:35:29.788Z,344
2019-04-05T10:36:30.366Z,352
2019-04-05T10:37:30.943Z,380
2019-04-05T10:38:31.513Z,412
2019-04-05T10:39:32.098Z,432
2019-04-05T10:40:32.669Z,440
2019-04-05T10:41:33.254Z,436
2019-04-05T10:42:33.824Z,440
2019-04-05T10:43:34.397Z,448
2019-04-05T10:44:34.967Z,448
2019-04-05T10:45:35.540Z,436
2019-04-05T10:46:36.113Z,404
2019-04-05T10:47:36.696Z,360
2019-04-05T10:48:37.267Z,308
2019-04-05T10:49:37.850Z,272
2019-04-05T10:50:38.440Z,248
2019-04-05T10:51:39.006Z,240
2019-04-05T10:52:39.574Z,228
2019-04-05T10:53:40.147Z,216
2019-04-05T10:54:40.719Z,208
2019-04-05T10:55:41.286Z,208
2019-04-05T10:56:41.856Z,204
2019-04-05T10:57:42.430Z,208
2019-04-05T10:58:42.997Z,208
2019-04-05T10:59:43.569Z,216
2019-04-05T11:00:44.141Z,220
2019-04-05T11:01:44.724Z,224
2019-04-05T11:02:45.307Z,232
2019-04-05T11:03:45.879Z,244
2019-04-05T11:04:46.451Z,268
2019-04-05T11:05:49.258Z,288
2019-04-05T11:06:47.600Z,316
2019-04-05T11:07:48.172Z,344
2019-04-05T11:08:48.747Z,368
2019-04-05T11:09:49.331Z,384
2019-04-05T11:10:49.905Z,384
2019-04-05T11:11:50.487Z,380
2019-04-05T11:12:51.063Z,368
2019-04-05T11:13:51.633Z,364
2019-04-05T11:14:52.203Z,368
2019-04-05T11:15:52.775Z,368
2019-04-05T11:16:58.759Z,380
2019-04-05T11:17:54.914Z,388
2019-04-05T11:18:55.486Z,392
2019-04-05T11:19:56.057Z,396
2019-04-05T11:20:56.629Z,412
2019-04-05T11:21:57.202Z,440
2019-04-05T11:22:57.785Z,460
2019-04-05T11:23:58.369Z,472
2019-04-05T11:24:58.940Z,476
2019-04-05T11:25:59.512Z,484
2019-04-05T11:27:00.155Z,500
2019-04-05T11:28:00.667Z,508
2019-04-05T11:29:01.239Z,516
2019-04-05T11:30:01.807Z,532
2019-04-05T11:31:02.388Z,556
2019-04-05T11:32:02.952Z,576
2019-04-05T11:33:03.535Z,592
2019-04-05T11:34:04.109Z,596
2019-04-05T11:35:04.692Z,584
2019-04-05T11:36:05.264Z,556
2019-04-05T11:37:05.842Z,544
2019-04-05T11:38:06.422Z,556
2019-04-05T11:39:07.009Z,572
2019-04-05T11:40:07.579Z,600
2019-04-05T11:41:08.152Z,620
2019-04-05T11:42:08.733Z,620
2019-04-05T11:43:09.307Z,600
2019-04-05T11:44:09.877Z,576
2019-04-05T11:45:10.452Z,548
2019-04-05T11:46:11.043Z,524
2019-04-05T11:47:11.595Z,512
2019-04-05T11:48:12.169Z,492
2019-04-05T11:49:12.750Z,456
2019-04-05T11:50:13.320Z,400
2019-04-05T11:51:13.890Z,356
2019-04-05T11:52:14.468Z,340
2019-04-05T11:53:15.034Z,332
2019-04-05T11:54:18.384Z,340
2019-04-05T11:55:18.192Z,352
2019-04-05T11:56:19.795Z,364
2019-04-05T11:57:18.335Z,372
2019-04-05T11:58:18.905Z,388
2019-04-05T11:59:19.487Z,416
2019-04-05T12:00:20.062Z,456
2019-04-05T12:01:23.365Z,492
2019-04-05T12:02:22.197Z,496
2019-04-05T12:03:22.772Z,488
2019-04-05T12:04:23.339Z,476
2019-04-05T12:05:26.918Z,456
2019-04-05T12:06:25.476Z,428
2019-04-05T12:07:26.616Z,404
2019-04-05T12:08:27.614Z,376
2019-04-05T12:09:28.187Z,356
2019-04-05T12:10:31.765Z,340
2019-04-05T12:11:30.324Z,328
2019-04-05T12:12:30.896Z,316
2019-04-05T12:13:31.470Z,316
2019-04-05T12:14:32.042Z,308
2019-04-05T12:15:33.551Z,308
2019-04-05T12:16:36.028Z,308
2019-04-05T12:17:35.847Z,316
2019-04-05T12:18:36.343Z,340
2019-04-05T12:19:38.176Z,376
2019-04-05T12:20:49.159Z,424
2019-04-05T12:21:40.085Z,456
2019-04-05T12:22:40.657Z,464
2019-04-05T12:23:41.268Z,452
2019-04-05T12:24:41.799Z,420
2019-04-05T12:25:42.373Z,376
2019-04-05T12:26:42.958Z,340
2019-04-05T12:27:43.527Z,316
2019-04-05T12:28:44.102Z,296
2019-04-05T12:29:44.678Z,288
2019-04-05T12:30:46.060Z,284
2019-04-05T12:31:45.825Z,284
2019-04-05T12:32:46.566Z,280
2019-04-05T12:33:51.394Z,280
2019-04-05T12:34:49.521Z,272
2019-04-05T12:35:52.959Z,268
2019-04-05T12:36:52.574Z,268
2019-04-05T12:37:55.705Z,268
2019-04-05T12:38:54.813Z,280
2019-04-05T12:39:55.386Z,296
2019-04-05T12:40:55.957Z,308
2019-04-05T12:41:56.533Z,312
2019-04-05T12:42:57.102Z,320
2019-04-05T12:43:57.673Z,332
2019-04-05T12:44:58.243Z,336
2019-04-05T12:45:58.816Z,336
2019-04-05T12:46:59.391Z,324
2019-04-05T12:48:00.012Z,316
2019-04-05T12:49:00.913Z,312
2019-04-05T12:50:01.175Z,312
2019-04-05T12:51:02.160Z,300
2019-04-05T12:52:02.321Z,292
2019-04-05T12:53:02.909Z,280
2019-04-05T12:54:03.493Z,272
2019-04-05T12:55:04.060Z,264
2019-04-05T12:56:04.632Z,252
2019-04-05T12:57:05.217Z,248
2019-04-05T12:58:05.789Z,248
2019-04-05T12:59:06.396Z,252
2019-04-05T13:00:06.966Z,256
2019-04-05T13:01:08.524Z,256
2019-04-05T13:02:08.129Z,260
2019-04-05T13:03:08.700Z,256
2019-04-05T13:04:09.273Z,252
2019-04-05T13:05:09.843Z,248
2019-04-05T13:06:10.414Z,240
2019-04-05T13:07:10.985Z,236
2019-04-05T13:08:11.557Z,228
2019-04-05T13:09:12.130Z,224
2019-04-05T13:10:12.761Z,224
2019-04-05T13:11:13.274Z,228
2019-04-05T13:12:13.915Z,244
2019-04-05T13:13:14.416Z,256
2019-04-05T13:14:14.992Z,264
2019-04-05T13:15:17.152Z,268
2019-04-05T13:16:16.141Z,264
2019-04-05T13:17:16.715Z,248
2019-04-05T13:18:17.288Z,240
2019-04-05T13:19:17.857Z,236
2019-04-05T13:20:18.429Z,232
2019-04-05T13:21:19.012Z,232
2019-04-05T13:22:22.488Z,232
2019-04-05T13:23:21.153Z,232
2019-04-05T13:24:21.721Z,236
2019-04-05T13:25:23.041Z,240
2019-04-05T13:26:26.305Z,240
2019-04-05T13:27:25.247Z,236
2019-04-05T13:28:25.821Z,236
2019-04-05T13:29:26.397Z,232
2019-04-05T13:30:26.967Z,236
2019-04-05T13:31:27.538Z,240
2019-04-05T13:32:28.110Z,240
2019-04-05T13:33:29.067Z,236
2019-04-05T13:34:29.714Z,232
2019-04-05T13:35:30.286Z,236
2019-04-05T13:36:30.857Z,244
2019-04-05T13:37:31.567Z,256
2019-04-05T13:38:32.099Z,268
2019-04-05T13:39:32.669Z,272
2019-04-05T13:40:33.244Z,268
2019-04-05T13:41:33.831Z,260
2019-04-05T13:42:35.481Z,256
2019-04-05T13:43:35.984Z,252
2019-04-05T13:44:36.566Z,240
2019-04-05T13:45:37.132Z,228
2019-04-05T13:46:39.079Z,220
2019-04-05T13:47:39.100Z,212
2019-04-05T13:48:40.145Z,204
2019-04-05T13:49:41.430Z,196
2019-04-05T13:50:42.159Z,200
2019-04-05T13:51:42.840Z,204
2019-04-05T13:52:43.425Z,200
2019-04-05T13:53:43.991Z,188
2019-04-05T13:54:44.563Z,176
2019-04-05T13:55:47.379Z,160
2019-04-05T13:56:46.698Z,152
2019-04-05T13:57:47.281Z,140
2019-04-05T13:58:47.864Z,132
2019-04-05T13:59:48.422Z,120
2019-04-05T14:00:49.826Z,124
2019-04-05T14:01:51.429Z,132
2019-04-05T14:02:51.455Z,136
2019-04-05T14:03:51.966Z,144
2019-04-05T14:04:53.865Z,144
2019-04-05T14:05:55.335Z,148
2019-04-05T14:06:55.669Z,152
2019-04-05T14:08:09.658Z,160
2019-04-05T14:08:57.805Z,156
2019-04-05T14:09:58.377Z,148
2019-04-05T14:10:58.945Z,144
2019-04-05T14:11:59.515Z,136
2019-04-05T14:13:00.088Z,132
2019-04-05T14:14:00.660Z,124
2019-04-05T14:15:01.230Z,112
2019-04-05T14:16:01.800Z,112
2019-04-05T14:17:02.371Z,104
2019-04-05T14:18:02.945Z,100
2019-04-05T14:19:03.511Z,96
2019-04-05T14:20:04.081Z,96